Time;durP1;ratioP1;P1;durP2;ratioP2;P2;SDS_P1;SDS_P2;PMS_P1;PMS_P2;Temp;Humidity;BMP_temperature;BMP_pressure;BME280_temperature;BME280_humidity;BME280_pressure;Samples;Min_cycle;Max_cycle;Signal;HPM_P1;HPM_P2
2024/02/12 00:00:12;;;;;;;1.23;0.77;;;;;;;;;;5121480;28;20023;-73
2024/02/12 00:02:39;;;;;;;1.63;0.80;;;;;;;;;;5119439;28;20102;-73
2024/02/12 00:05:07;;;;;;;2.38;0.90;;;;;;;;;;5117739;28;20032;-73
2024/02/12 00:07:33;;;;;;;1.05;0.77;;;;;;;;;;5119030;28;20445;-73
2024/02/12 00:10:05;;;;;;;0.50;0.45;;;;;;;;;;5121477;28;20088;-73
2024/02/12 00:12:33;;;;;;;2.15;0.77;;;;;;;;;;5118041;28;20023;-73
2024/02/12 00:14:59;;;;;;;1.23;0.60;;;;;;;;;;5100097;28;20103;-73
2024/02/12 00:17:25;;;;;;;0.80;0.47;;;;;;;;;;5120101;28;20098;-74
2024/02/12 00:19:51;;;;;;;1.23;0.68;;;;;;;;;;5120826;28;20015;-74
2024/02/12 00:22:20;;;;;;;2.85;0.60;;;;;;;;;;5124940;27;20062;-74
2024/02/12 00:24:46;;;;;;;0.73;0.50;;;;;;;;;;5114414;28;20011;-75
2024/02/12 00:27:12;;;;;;;1.52;0.57;;;;;;;;;;5116162;28;20096;-74
2024/02/12 00:29:38;;;;;;;1.10;0.50;;;;;;;;;;5116925;28;20072;-75
2024/02/12 00:32:04;;;;;;;1.92;0.60;;;;;;;;;;5118914;28;20015;-75
2024/02/12 00:34:33;;;;;;;1.67;0.60;;;;;;;;;;5095501;28;20028;-75
2024/02/12 00:36:59;;;;;;;1.00;0.50;;;;;;;;;;5085275;28;20027;-75
2024/02/12 00:39:25;;;;;;;1.52;0.65;;;;;;;;;;5108375;28;20026;-75
2024/02/12 00:41:52;;;;;;;1.95;0.60;;;;;;;;;;5113780;28;20024;-74
2024/02/12 00:44:18;;;;;;;0.40;0.40;;;;;;;;;;5108561;28;20027;-75
2024/02/12 00:46:46;;;;;;;0.85;0.50;;;;;;;;;;5099613;28;20024;-75
2024/02/12 00:49:13;;;;;;;1.20;0.60;;;;;;;;;;5101529;28;20040;-75
2024/02/12 00:51:40;;;;;;;0.82;0.50;;;;;;;;;;5108500;28;20024;-75
2024/02/12 00:54:06;;;;;;;2.15;0.80;;;;;;;;;;5106217;28;20066;-74
2024/02/12 00:56:33;;;;;;;2.70;1.00;;;;;;;;;;5096468;28;20024;-73
2024/02/12 00:59:00;;;;;;;3.90;1.30;;;;;;;;;;5093330;28;20271;-75
2024/02/12 01:01:26;;;;;;;2.80;1.00;;;;;;;;;;5101656;28;20023;-75
2024/02/12 01:03:52;;;;;;;2.97;0.90;;;;;;;;;;5101832;28;20115;-75
2024/02/12 01:06:18;;;;;;;1.77;0.80;;;;;;;;;;5111793;28;20012;-74
2024/02/12 01:08:44;;;;;;;1.20;0.47;;;;;;;;;;5100639;28;20027;-75
2024/02/12 01:11:10;;;;;;;1.95;0.80;;;;;;;;;;5104025;28;20494;-74
2024/02/12 01:13:36;;;;;;;1.08;0.50;;;;;;;;;;5104890;28;20112;-75
2024/02/12 01:16:02;;;;;;;1.17;0.50;;;;;;;;;;5112887;28;20467;-75
2024/02/12 01:18:28;;;;;;;5.68;1.17;;;;;;;;;;5108206;28;20090;-75
2024/02/12 01:20:55;;;;;;;1.55;0.60;;;;;;;;;;5100618;27;20107;-75
2024/02/12 01:23:22;;;;;;;1.92;0.40;;;;;;;;;;5113261;27;20047;-75
2024/02/12 01:25:50;;;;;;;1.33;0.57;;;;;;;;;;5092805;28;20093;-75
2024/02/12 01:28:16;;;;;;;1.00;0.55;;;;;;;;;;5102520;28;20607;-75
2024/02/12 01:30:42;;;;;;;1.15;0.57;;;;;;;;;;5108138;28;20102;-74
2024/02/12 01:33:08;;;;;;;1.15;0.60;;;;;;;;;;5112524;28;20320;-75
2024/02/12 01:35:34;;;;;;;1.42;0.73;;;;;;;;;;5108203;28;20027;-75
2024/02/12 01:38:00;;;;;;;2.05;0.75;;;;;;;;;;5105595;28;20015;-75
2024/02/12 01:40:27;;;;;;;3.65;1.00;;;;;;;;;;5098805;28;20483;-74
2024/02/12 01:42:53;;;;;;;1.13;0.60;;;;;;;;;;5100582;28;20064;-74
2024/02/12 01:45:26;;;;;;;0.85;0.40;;;;;;;;;;5102276;28;20745;-73
2024/02/12 01:47:57;;;;;;;1.15;0.47;;;;;;;;;;5094809;28;20046;-73
2024/02/12 01:50:24;;;;;;;1.00;0.68;;;;;;;;;;5105688;28;20030;-73
2024/02/12 01:52:51;;;;;;;1.65;0.40;;;;;;;;;;5107274;28;20085;-72
2024/02/12 01:55:20;;;;;;;2.67;0.80;;;;;;;;;;5107413;28;20098;-73
2024/02/12 01:57:46;;;;;;;1.70;0.50;;;;;;;;;;5096549;28;20015;-73
2024/02/12 02:00:13;;;;;;;1.58;0.75;;;;;;;;;;5094878;28;20016;-73
2024/02/12 02:02:43;;;;;;;1.00;0.52;;;;;;;;;;5102947;28;20119;-73
2024/02/12 02:05:10;;;;;;;0.80;0.50;;;;;;;;;;5107063;28;20049;-72
2024/02/12 02:07:36;;;;;;;2.60;0.65;;;;;;;;;;5107319;28;20047;-74
2024/02/12 02:10:04;;;;;;;3.03;0.82;;;;;;;;;;5095966;28;20032;-75
2024/02/12 02:12:30;;;;;;;2.88;0.68;;;;;;;;;;5102706;28;20057;-73
2024/02/12 02:14:57;;;;;;;1.85;0.60;;;;;;;;;;5109410;28;20432;-72
2024/02/12 02:17:23;;;;;;;1.45;0.50;;;;;;;;;;5108500;28;20037;-73
2024/02/12 02:19:49;;;;;;;1.20;0.60;;;;;;;;;;5098314;28;20831;-72
2024/02/12 02:22:18;;;;;;;1.88;0.90;;;;;;;;;;5114394;27;20193;-72
2024/02/12 02:24:44;;;;;;;3.25;0.65;;;;;;;;;;5100572;28;20084;-72
2024/02/12 02:27:10;;;;;;;1.70;0.40;;;;;;;;;;5102897;28;20063;-72
2024/02/12 02:29:39;;;;;;;1.35;0.60;;;;;;;;;;5098971;28;20020;-72
2024/02/12 02:32:05;;;;;;;1.30;0.60;;;;;;;;;;5105791;28;20017;-72
2024/02/12 02:34:32;;;;;;;1.55;0.70;;;;;;;;;;5101395;28;20031;-73
2024/02/12 02:36:58;;;;;;;2.80;0.60;;;;;;;;;;5097884;28;20483;-73
2024/02/12 02:39:24;;;;;;;1.27;0.50;;;;;;;;;;5104409;28;20028;-73
2024/02/12 02:41:51;;;;;;;1.58;0.70;;;;;;;;;;5093943;28;20054;-73
2024/02/12 02:44:18;;;;;;;0.93;0.40;;;;;;;;;;5094283;28;20507;-73
2024/02/12 02:46:46;;;;;;;2.05;0.50;;;;;;;;;;5101918;28;20019;-73
2024/02/12 02:49:14;;;;;;;0.65;0.45;;;;;;;;;;5103421;28;20020;-73
2024/02/12 02:51:40;;;;;;;0.73;0.43;;;;;;;;;;5106021;28;20019;-73
2024/02/12 02:54:08;;;;;;;0.80;0.30;;;;;;;;;;5096461;28;20023;-72
2024/02/12 02:56:34;;;;;;;1.38;0.32;;;;;;;;;;5103716;28;20042;-73
2024/02/12 02:59:00;;;;;;;1.27;0.55;;;;;;;;;;5109692;28;20016;-72
2024/02/12 03:01:30;;;;;;;0.40;0.38;;;;;;;;;;5098318;28;20030;-72
2024/02/12 03:03:56;;;;;;;1.10;0.40;;;;;;;;;;5098780;28;20024;-73
2024/02/12 03:06:26;;;;;;;0.47;0.30;;;;;;;;;;5103644;28;20711;-73
2024/02/12 03:08:54;;;;;;;0.30;0.20;;;;;;;;;;5097628;28;20022;-72
2024/02/12 03:11:23;;;;;;;1.10;0.38;;;;;;;;;;5101763;28;20035;-72
2024/02/12 03:13:50;;;;;;;1.25;0.43;;;;;;;;;;5106517;28;20481;-72
2024/02/12 03:16:16;;;;;;;0.50;0.30;;;;;;;;;;5093720;28;20026;-72
2024/02/12 03:18:45;;;;;;;1.20;0.35;;;;;;;;;;5106564;28;20271;-72
2024/02/12 03:21:11;;;;;;;1.55;0.43;;;;;;;;;;5110911;28;20106;-72
2024/02/12 03:23:37;;;;;;;1.25;0.32;;;;;;;;;;5106267;28;20027;-72
2024/02/12 03:26:06;;;;;;;1.05;0.40;;;;;;;;;;5092556;28;20016;-72
2024/02/12 03:28:35;;;;;;;0.70;0.35;;;;;;;;;;5097688;28;20028;-72
2024/02/12 03:31:01;;;;;;;0.60;0.43;;;;;;;;;;5106770;28;20033;-72
2024/02/12 03:33:27;;;;;;;2.45;0.50;;;;;;;;;;5105256;28;20015;-73
2024/02/12 03:35:53;;;;;;;2.42;0.40;;;;;;;;;;5105352;28;20027;-72
2024/02/12 03:38:19;;;;;;;1.05;0.40;;;;;;;;;;5102067;28;20012;-73
2024/02/12 03:40:45;;;;;;;0.57;0.40;;;;;;;;;;5091921;28;20365;-72
2024/02/12 03:43:11;;;;;;;1.27;0.60;;;;;;;;;;5099000;28;20038;-72
2024/02/12 03:45:38;;;;;;;0.95;0.60;;;;;;;;;;5103391;28;20016;-73
2024/02/12 03:59:50;;;;;;;0.30;0.30;;;;;;;;;;5099405;28;20111;-73
2024/02/12 04:01:54;;;;;;;0.98;0.20;;;;;;;;;;5056215;28;20031;-72
2024/02/12 04:04:21;;;;;;;1.13;0.30;;;;;;;;;;5100317;28;20077;-73
2024/02/12 04:06:48;;;;;;;0.57;0.30;;;;;;;;;;5092219;28;20031;-72
2024/02/12 04:09:14;;;;;;;2.78;0.40;;;;;;;;;;5094591;28;20465;-72
2024/02/12 04:11:40;;;;;;;0.45;0.40;;;;;;;;;;5101293;28;20110;-73
2024/02/12 04:14:07;;;;;;;0.57;0.30;;;;;;;;;;5105520;28;20361;-73
2024/02/12 04:16:33;;;;;;;2.40;0.30;;;;;;;;;;5112468;28;20034;-73
2024/02/12 04:18:58;;;;;;;0.65;0.28;;;;;;;;;;5112030;28;20099;-73
2024/02/12 04:21:25;;;;;;;0.75;0.25;;;;;;;;;;5116976;27;20035;-73
2024/02/12 04:23:52;;;;;;;0.38;0.30;;;;;;;;;;5113654;28;20022;-72
2024/02/12 04:26:18;;;;;;;1.95;0.50;;;;;;;;;;5113597;28;20032;-73
2024/02/12 04:28:45;;;;;;;0.70;0.60;;;;;;;;;;5107992;28;20023;-72
2024/02/12 04:31:12;;;;;;;2.00;0.50;;;;;;;;;;5099704;28;20024;-72
2024/02/12 04:33:38;;;;;;;1.13;0.57;;;;;;;;;;5097299;28;20031;-73
2024/02/12 04:36:04;;;;;;;0.90;0.40;;;;;;;;;;5096753;28;20020;-72
2024/02/12 04:38:33;;;;;;;1.15;0.50;;;;;;;;;;5100125;28;20024;-73
2024/02/12 04:40:59;;;;;;;0.60;0.40;;;;;;;;;;5109276;28;20016;-72
2024/02/12 04:43:25;;;;;;;0.77;0.40;;;;;;;;;;5111204;28;20038;-73
2024/02/12 04:45:52;;;;;;;0.85;0.50;;;;;;;;;;5107676;28;20469;-72
2024/02/12 04:48:18;;;;;;;2.88;0.40;;;;;;;;;;5103452;28;20062;-72
2024/02/12 04:50:45;;;;;;;0.80;0.40;;;;;;;;;;5108657;28;20008;-73
2024/02/12 04:53:11;;;;;;;0.50;0.40;;;;;;;;;;5100448;28;20035;-73
2024/02/12 04:55:37;;;;;;;1.20;0.63;;;;;;;;;;5100259;28;20016;-73
2024/02/12 04:58:04;;;;;;;1.70;0.43;;;;;;;;;;5105508;28;20054;-72
2024/02/12 05:00:30;;;;;;;1.02;0.40;;;;;;;;;;5111488;28;20106;-72
2024/02/12 05:02:57;;;;;;;1.70;0.63;;;;;;;;;;5090282;28;20081;-72
2024/02/12 05:05:23;;;;;;;1.15;0.65;;;;;;;;;;5100158;28;20026;-73
2024/02/12 05:07:49;;;;;;;0.90;0.70;;;;;;;;;;5100488;28;20031;-72
2024/02/12 05:10:15;;;;;;;1.23;0.50;;;;;;;;;;5105374;28;20099;-72
2024/02/12 05:12:41;;;;;;;1.23;0.70;;;;;;;;;;5099454;28;20500;-73
2024/02/12 05:15:09;;;;;;;2.28;0.70;;;;;;;;;;5107200;28;20026;-73
2024/02/12 05:23:07;;;;;;;0.93;0.90;;;;;;;;;;5098095;28;20070;-73
2024/02/12 05:25:33;;;;;;;3.40;0.90;;;;;;;;;;5106218;28;20020;-74
2024/02/12 05:28:03;;;;;;;1.10;1.00;;;;;;;;;;5102204;28;20531;-72
2024/02/12 05:30:30;;;;;;;2.65;1.23;;;;;;;;;;5105345;28;20021;-72
2024/02/12 05:32:56;;;;;;;4.45;1.65;;;;;;;;;;5103745;28;20024;-72
2024/02/12 05:35:22;;;;;;;3.75;1.30;;;;;;;;;;5109700;28;20023;-74
2024/02/12 05:37:47;;;;;;;3.55;1.15;;;;;;;;;;5097683;28;20066;-74
2024/02/12 05:40:13;;;;;;;2.75;1.50;;;;;;;;;;5108944;28;20016;-74
2024/02/12 05:42:39;;;;;;;2.90;1.55;;;;;;;;;;5106454;28;20488;-74
2024/02/12 05:45:07;;;;;;;5.60;1.67;;;;;;;;;;5102863;28;20027;-73
2024/02/12 05:47:33;;;;;;;2.80;1.75;;;;;;;;;;5121586;28;20124;-75
2024/02/12 05:49:59;;;;;;;4.03;1.48;;;;;;;;;;5101745;28;20020;-74
2024/02/12 05:52:25;;;;;;;4.57;1.75;;;;;;;;;;5125344;28;20069;-73
2024/02/12 05:54:51;;;;;;;2.38;1.30;;;;;;;;;;5113911;28;20551;-73
2024/02/12 05:57:17;;;;;;;4.15;1.90;;;;;;;;;;5102891;28;20469;-73
2024/02/12 05:59:43;;;;;;;3.75;1.85;;;;;;;;;;5109299;28;20031;-73
2024/02/12 06:02:09;;;;;;;3.20;1.65;;;;;;;;;;5095998;28;20217;-73
2024/02/12 06:04:35;;;;;;;2.38;1.45;;;;;;;;;;5101798;28;20356;-73
2024/02/12 06:07:01;;;;;;;3.85;2.40;;;;;;;;;;5120746;28;20027;-73
2024/02/12 06:09:30;;;;;;;5.68;2.20;;;;;;;;;;5112927;28;20020;-74
2024/02/12 06:11:56;;;;;;;5.05;2.53;;;;;;;;;;5098963;28;20495;-73
2024/02/12 06:14:22;;;;;;;4.95;1.88;;;;;;;;;;5085305;28;20464;-74
2024/02/12 06:16:50;;;;;;;4.88;2.35;;;;;;;;;;5111432;28;20073;-73
2024/02/12 06:19:16;;;;;;;2.55;1.88;;;;;;;;;;5109120;28;20028;-73
2024/02/12 06:21:45;;;;;;;3.78;2.00;;;;;;;;;;5103006;27;20224;-74
2024/02/12 06:24:11;;;;;;;6.15;1.75;;;;;;;;;;5107989;28;20023;-74
2024/02/12 06:26:38;;;;;;;3.10;1.75;;;;;;;;;;5110084;28;20024;-73
2024/02/12 06:29:04;;;;;;;5.50;2.42;;;;;;;;;;5102032;28;20028;-73
2024/02/12 06:31:34;;;;;;;2.33;1.75;;;;;;;;;;5096864;28;20037;-74
2024/02/12 06:34:00;;;;;;;5.10;1.73;;;;;;;;;;5104695;28;20515;-73
2024/02/12 06:36:26;;;;;;;5.38;1.42;;;;;;;;;;5089309;28;20032;-74
2024/02/12 06:38:52;;;;;;;2.10;1.67;;;;;;;;;;5098257;28;20103;-73
2024/02/12 06:41:20;;;;;;;3.83;2.05;;;;;;;;;;5104796;28;20032;-73
2024/02/12 06:43:46;;;;;;;3.47;1.75;;;;;;;;;;5092169;28;20024;-73
2024/02/12 06:46:12;;;;;;;4.40;1.88;;;;;;;;;;5079464;28;20043;-73
2024/02/12 06:48:40;;;;;;;1.95;1.55;;;;;;;;;;5106173;28;20468;-73
2024/02/12 06:51:08;;;;;;;2.83;1.52;;;;;;;;;;5105899;28;20464;-73
2024/02/12 06:53:36;;;;;;;5.35;1.90;;;;;;;;;;5096745;28;20103;-74
2024/02/12 06:56:03;;;;;;;6.40;2.00;;;;;;;;;;5100461;28;20034;-73
2024/02/12 06:58:29;;;;;;;2.92;2.08;;;;;;;;;;5108624;28;20027;-73
2024/02/12 07:00:57;;;;;;;4.15;1.85;;;;;;;;;;5098745;28;20031;-73
2024/02/12 07:03:23;;;;;;;5.90;2.10;;;;;;;;;;5101533;28;20088;-75
2024/02/12 07:05:50;;;;;;;6.05;2.05;;;;;;;;;;5102041;28;20465;-73
2024/02/12 07:08:18;;;;;;;4.88;2.25;;;;;;;;;;5103284;28;20498;-73
2024/02/12 07:10:44;;;;;;;3.15;2.10;;;;;;;;;;5094736;28;20013;-73
2024/02/12 07:13:10;;;;;;;4.90;2.35;;;;;;;;;;5104807;28;20028;-73
2024/02/12 07:15:36;;;;;;;4.18;2.40;;;;;;;;;;5105106;28;20452;-73
2024/02/12 07:18:02;;;;;;;5.55;2.03;;;;;;;;;;5101736;28;20020;-73
2024/02/12 07:20:28;;;;;;;4.15;2.60;;;;;;;;;;5094581;28;20489;-74
2024/02/12 07:22:54;;;;;;;6.05;2.38;;;;;;;;;;5104777;28;20172;-73
2024/02/12 07:25:21;;;;;;;4.30;1.98;;;;;;;;;;5106969;28;20020;-74
2024/02/12 07:27:47;;;;;;;3.95;1.80;;;;;;;;;;5092561;28;20103;-73
2024/02/12 07:30:14;;;;;;;4.65;1.98;;;;;;;;;;5097977;28;20028;-73
2024/02/12 07:32:40;;;;;;;2.92;2.00;;;;;;;;;;5106191;28;20032;-73
2024/02/12 07:35:08;;;;;;;3.45;1.70;;;;;;;;;;5094368;28;20031;-73
2024/02/12 07:37:35;;;;;;;1.73;1.20;;;;;;;;;;5099158;28;20023;-79
2024/02/12 07:40:03;;;;;;;2.58;1.42;;;;;;;;;;5099318;28;20464;-73
2024/02/12 07:42:29;;;;;;;2.28;1.33;;;;;;;;;;5102108;28;20028;-73
2024/02/12 07:44:55;;;;;;;2.35;1.45;;;;;;;;;;5098746;28;20013;-74
2024/02/12 07:47:21;;;;;;;2.17;1.50;;;;;;;;;;5087465;28;20038;-73
2024/02/12 07:49:47;;;;;;;1.60;1.20;;;;;;;;;;5106265;28;20465;-73
2024/02/12 07:52:13;;;;;;;1.58;1.38;;;;;;;;;;5095354;28;20028;-74
2024/02/12 07:54:41;;;;;;;2.75;1.63;;;;;;;;;;5110281;28;20387;-74
2024/02/12 07:57:08;;;;;;;2.35;1.92;;;;;;;;;;5101639;28;20365;-74
2024/02/12 07:59:34;;;;;;;2.45;1.10;;;;;;;;;;5098486;28;20020;-74
2024/02/12 08:02:02;;;;;;;2.75;1.63;;;;;;;;;;5098651;28;20039;-74
2024/02/12 08:04:28;;;;;;;3.20;1.40;;;;;;;;;;5080603;28;20028;-74
2024/02/12 08:06:56;;;;;;;1.98;1.27;;;;;;;;;;5108656;28;20016;-73
2024/02/12 08:09:23;;;;;;;1.40;1.10;;;;;;;;;;5109820;28;20028;-74
2024/02/12 08:11:50;;;;;;;2.85;1.17;;;;;;;;;;5088016;28;20039;-73
2024/02/12 08:14:16;;;;;;;4.78;1.80;;;;;;;;;;5101192;28;20357;-74
2024/02/12 08:16:45;;;;;;;1.75;1.48;;;;;;;;;;5103515;28;20712;-73
2024/02/12 08:19:11;;;;;;;2.88;1.23;;;;;;;;;;5099296;28;20617;-73
2024/02/12 08:21:37;;;;;;;2.42;1.08;;;;;;;;;;5106928;28;20522;-73
2024/02/12 08:24:03;;;;;;;2.83;1.40;;;;;;;;;;5081468;28;20016;-73
2024/02/12 08:26:30;;;;;;;1.30;0.82;;;;;;;;;;5066046;28;20406;-73
2024/02/12 08:28:58;;;;;;;1.20;1.10;;;;;;;;;;5085828;28;20016;-74
2024/02/12 08:31:24;;;;;;;1.10;1.00;;;;;;;;;;5080717;28;20471;-74
2024/02/12 08:33:50;;;;;;;2.33;1.38;;;;;;;;;;5075892;28;20558;-73
2024/02/12 08:36:17;;;;;;;1.20;0.80;;;;;;;;;;5073936;28;20051;-73
2024/02/12 08:38:43;;;;;;;1.85;1.05;;;;;;;;;;5083646;28;20185;-74
2024/02/12 08:41:09;;;;;;;0.82;0.82;;;;;;;;;;5093588;28;20031;-73
2024/02/12 08:43:35;;;;;;;2.38;0.63;;;;;;;;;;5090335;28;20032;-74
2024/02/12 08:46:01;;;;;;;3.05;0.77;;;;;;;;;;5088031;28;20495;-74
2024/02/12 08:48:27;;;;;;;2.03;1.20;;;;;;;;;;5091936;28;20021;-75
2024/02/12 08:50:53;;;;;;;0.60;0.60;;;;;;;;;;5083429;28;20021;-74
2024/02/12 08:53:19;;;;;;;2.45;1.00;;;;;;;;;;5086693;28;20111;-73
2024/02/12 08:55:45;;;;;;;1.42;1.10;;;;;;;;;;5084018;28;20028;-74
2024/02/12 08:58:12;;;;;;;2.25;0.90;;;;;;;;;;5083756;28;20060;-73
2024/02/12 09:00:38;;;;;;;0.82;0.73;;;;;;;;;;5084915;28;20485;-75
2024/02/12 09:03:04;;;;;;;1.60;1.08;;;;;;;;;;5089428;28;20032;-75
2024/02/12 09:05:30;;;;;;;5.45;1.02;;;;;;;;;;5082087;28;20024;-75
2024/02/12 09:07:56;;;;;;;1.13;1.00;;;;;;;;;;5088016;28;20416;-72
2024/02/12 09:10:22;;;;;;;1.45;0.70;;;;;;;;;;5085429;28;20028;-72
2024/02/12 09:12:49;;;;;;;1.92;0.90;;;;;;;;;;5088486;28;21450;-73
2024/02/12 09:15:16;;;;;;;1.25;0.57;;;;;;;;;;5083990;28;20021;-73
2024/02/12 09:17:44;;;;;;;1.40;0.90;;;;;;;;;;5081072;28;20519;-72
2024/02/12 09:20:13;;;;;;;1.65;0.80;;;;;;;;;;5072479;28;20040;-74
2024/02/12 09:22:39;;;;;;;2.70;1.05;;;;;;;;;;5097270;27;20400;-76
2024/02/12 09:25:09;;;;;;;2.45;0.90;;;;;;;;;;5101558;28;20024;-76
2024/02/12 09:27:36;;;;;;;2.25;1.00;;;;;;;;;;5117513;27;20032;-75
2024/02/12 09:30:09;;;;;;;4.15;1.10;;;;;;;;;;5099084;28;20055;-75
2024/02/12 09:32:38;;;;;;;1.88;0.95;;;;;;;;;;5087177;28;20028;-75
2024/02/12 09:35:06;;;;;;;1.45;0.90;;;;;;;;;;5094954;28;20048;-75
2024/02/12 09:37:33;;;;;;;3.00;1.20;;;;;;;;;;5111063;27;20103;-75
2024/02/12 09:39:59;;;;;;;1.95;1.08;;;9.40;99.90;;;;;;5105640;28;20199;-75
2024/02/12 09:42:28;;;;;;;3.80;1.02;;;9.60;99.90;;;;;;5092695;28;20031;-76
2024/02/12 09:44:59;;;;;;;1.65;1.05;;;9.60;99.90;;;;;;5105349;28;20365;-75
2024/02/12 09:47:26;;;;;;;2.05;1.02;;;9.60;99.90;;;;;;5103580;28;20028;-75
2024/02/12 09:49:54;;;;;;;1.58;0.90;;;9.60;99.90;;;;;;5103037;28;20031;-75
2024/02/12 09:52:21;;;;;;;2.38;1.10;;;9.70;99.90;;;;;;5119026;27;20062;-75
2024/02/12 09:54:51;;;;;;;3.50;1.13;;;9.80;99.90;;;;;;5113757;27;20027;-73
2024/02/12 09:57:17;;;;;;;2.13;1.00;;;9.90;99.90;;;;;;5107014;28;20027;-75
2024/02/12 09:59:46;;;;;;;2.90;0.93;;;9.90;99.90;;;;;;5107312;28;20668;-75
2024/02/12 10:02:13;;;;;;;2.35;1.15;;;10.00;99.90;;;;;;5112646;28;20028;-75
2024/02/12 10:04:39;;;;;;;3.80;1.17;;;10.00;99.90;;;;;;5111005;28;20107;-75
2024/02/12 10:07:05;;;;;;;1.35;1.13;;;10.00;99.90;;;;;;5101749;28;20024;-73
2024/02/12 10:09:32;;;;;;;2.45;1.13;;;10.10;99.90;;;;;;5106088;28;20046;-75
2024/02/12 10:12:06;;;;;;;2.33;1.20;;;10.20;99.90;;;;;;5107662;28;20416;-75
2024/02/12 10:14:32;;;;;;;2.83;1.17;;;10.20;99.90;;;;;;5113883;27;20094;-76
2024/02/12 10:17:00;;;;;;;1.40;1.10;;;10.10;99.90;;;;;;5105717;28;20470;-76
2024/02/12 10:19:27;;;;;;;1.65;1.20;;;10.20;99.90;;;;;;5106261;28;20361;-77
2024/02/12 10:21:54;;;;;;;1.40;1.00;;;10.30;99.90;;;;;;5107951;28;20455;-76
2024/02/12 10:24:22;;;;;;;1.67;1.30;;;10.30;99.90;;;;;;5104812;27;20056;-75
2024/02/12 10:26:50;;;;;;;4.25;1.30;;;10.30;99.90;;;;;;5102154;28;20484;-76
2024/02/12 10:29:18;;;;;;;2.58;1.38;;;10.40;99.90;;;;;;5111378;28;20456;-76
2024/02/12 10:31:46;;;;;;;2.25;0.90;;;10.50;99.90;;;;;;5086594;28;20027;-75
2024/02/12 10:34:14;;;;;;;2.80;1.40;;;10.50;99.90;;;;;;5095674;28;20039;-76
2024/02/12 10:36:47;;;;;;;1.83;1.13;;;10.50;99.90;;;;;;5103184;28;20024;-75
2024/02/12 10:39:16;;;;;;;2.25;1.30;;;10.50;99.90;;;;;;5098518;28;20024;-75
2024/02/12 10:41:56;;;;;;;4.40;1.75;;;10.50;99.90;;;;;;5096073;28;20028;-75
2024/02/12 10:44:23;;;;;;;1.85;1.23;;;10.50;99.90;;;;;;5099386;28;20038;-73
2024/02/12 10:46:50;;;;;;;2.10;1.10;;;10.60;99.90;;;;;;5103433;28;20039;-75
2024/02/12 10:49:17;;;;;;;3.25;1.05;;;10.60;99.90;;;;;;5103150;28;20028;-75
2024/02/12 10:51:45;;;;;;;2.05;1.20;;;10.70;99.90;;;;;;5096894;28;20102;-75
2024/02/12 10:54:11;;;;;;;2.13;0.90;;;10.70;99.90;;;;;;5106589;28;20028;-75
2024/02/12 10:56:38;;;;;;;1.42;1.10;;;10.70;99.90;;;;;;5100661;28;20376;-75
2024/02/12 10:59:04;;;;;;;3.55;1.45;;;10.60;99.90;;;;;;5114239;27;20391;-75
2024/02/12 11:01:31;;;;;;;1.90;1.27;;;10.50;99.90;;;;;;5099883;28;20032;-76
2024/02/12 11:03:59;;;;;;;1.55;1.00;;;10.50;99.90;;;;;;5094279;28;20028;-75
2024/02/12 11:06:27;;;;;;;1.75;1.10;;;10.40;99.90;;;;;;5111665;28;20053;-76
2024/02/12 11:08:54;;;;;;;1.75;1.13;;;10.30;99.90;;;;;;5101293;28;20193;-75
2024/02/12 11:11:29;;;;;;;1.42;1.10;;;10.20;99.90;;;;;;5100863;27;20113;-73
2024/02/12 11:14:01;;;;;;;2.15;1.20;;;10.20;99.90;;;;;;5110342;28;20513;-75
2024/02/12 11:16:32;;;;;;;2.88;1.38;;;10.30;99.90;;;;;;5093263;28;20106;-75
2024/02/12 11:19:00;;;;;;;2.97;1.20;;;10.30;99.90;;;;;;5109812;28;20035;-74
2024/02/12 11:21:29;;;;;;;3.80;0.98;;;10.30;99.90;;;;;;5103106;28;20032;-77
2024/02/12 11:24:07;;;;;;;4.40;1.73;;;10.50;99.90;;;;;;5106233;28;20036;-73
2024/02/12 11:26:48;;;;;;;1.60;0.82;;;10.60;99.90;;;;;;5095353;28;20532;-72
2024/02/12 11:29:16;;;;;;;1.80;1.08;;;10.60;99.90;;;;;;5110175;28;20046;-73
2024/02/12 11:31:44;;;;;;;2.88;1.05;;;10.60;99.90;;;;;;5092576;28;20583;-72
2024/02/12 11:34:32;;;;;;;2.42;1.10;;;10.60;99.90;;;;;;5107587;28;20031;-75
2024/02/12 11:36:59;;;;;;;2.17;1.10;;;10.50;99.90;;;;;;5110990;28;20384;-76
2024/02/12 11:39:25;;;;;;;3.83;1.35;;;10.50;99.90;;;;;;5109260;28;20464;-75
2024/02/12 11:41:51;;;;;;;3.40;1.23;;;10.40;99.90;;;;;;5110804;28;20136;-74
2024/02/12 11:44:17;;;;;;;1.95;1.20;;;10.30;99.90;;;;;;5091864;28;20078;-75
2024/02/12 11:46:42;;;;;;;2.20;0.90;;;10.20;99.90;;;;;;5096795;28;20146;-75
2024/02/12 11:49:08;;;;;;;2.70;1.10;;;10.10;99.90;;;;;;5104472;28;20023;-74
2024/02/12 11:51:38;;;;;;;2.75;1.25;;;10.00;99.90;;;;;;5109086;28;20039;-75
2024/02/12 11:54:06;;;;;;;4.75;1.10;;;9.90;99.90;;;;;;5112065;28;20039;-74
2024/02/12 11:56:32;;;;;;;4.43;1.35;;;9.80;99.90;;;;;;5101411;28;20050;-74
2024/02/12 11:58:59;;;;;;;2.03;0.90;;;9.80;99.90;;;;;;5108392;28;20030;-74
2024/02/12 12:01:26;;;;;;;4.65;1.33;;;9.80;99.90;;;;;;5097700;28;20027;-76
2024/02/12 12:03:53;;;;;;;1.65;1.23;;;9.80;99.90;;;;;;5106891;28;20024;-74
2024/02/12 12:06:22;;;;;;;3.00;1.30;;;9.80;99.90;;;;;;5109624;28;20031;-74
2024/02/12 12:08:48;;;;;;;2.85;1.33;;;9.90;99.90;;;;;;5096368;28;20358;-72
2024/02/12 12:11:21;;;;;;;1.98;1.00;;;9.90;99.90;;;;;;5102752;28;20084;-72
2024/02/12 12:13:47;;;;;;;3.08;1.30;;;9.80;99.90;;;;;;5108429;28;20031;-72
2024/02/12 12:16:16;;;;;;;4.55;1.33;;;9.80;99.90;;;;;;5097545;28;20020;-73
2024/02/12 12:18:42;;;;;;;3.28;1.65;;;9.80;99.90;;;;;;5101424;28;20055;-73
2024/02/12 12:21:08;;;;;;;1.88;1.20;;;9.90;99.90;;;;;;5110718;28;20055;-72
2024/02/12 12:23:37;;;;;;;3.97;1.17;;;9.90;99.90;;;;;;5106190;27;20047;-73
2024/02/12 12:26:04;;;;;;;2.17;1.15;;;9.90;99.90;;;;;;5098948;28;20492;-72
2024/02/12 12:28:31;;;;;;;2.22;1.10;;;10.00;99.90;;;;;;5096348;28;20027;-73
2024/02/12 12:30:57;;;;;;;3.45;1.42;;;10.10;99.90;;;;;;5102320;28;20461;-73
2024/02/12 12:33:24;;;;;;;2.65;1.15;;;10.10;99.90;;;;;;5101454;28;20036;-74
2024/02/12 12:35:49;;;;;;;1.92;0.90;;;10.20;99.90;;;;;;5092123;28;20034;-73
2024/02/12 12:38:15;;;;;;;2.30;0.95;;;10.10;99.90;;;;;;5106544;27;20329;-73
2024/02/12 12:40:42;;;;;;;2.15;1.10;;;9.90;99.90;;;;;;5104534;28;20380;-72
2024/02/12 12:43:08;;;;;;;1.83;1.13;;;9.60;99.90;;;;;;5106636;28;20024;-73
2024/02/12 12:45:34;;;;;;;3.92;0.93;;;9.30;99.90;;;;;;5101074;28;20036;-73
2024/02/12 12:48:02;;;;;;;1.67;1.05;;;9.10;99.90;;;;;;5093121;28;20024;-72
2024/02/12 12:50:29;;;;;;;2.13;1.20;;;8.90;99.90;;;;;;5111205;28;20027;-73
2024/02/12 12:52:57;;;;;;;3.72;1.50;;;8.80;99.90;;;;;;5104065;28;20031;-72
2024/02/12 12:55:23;;;;;;;2.20;1.00;;;8.60;99.90;;;;;;5101343;28;20118;-73
2024/02/12 12:57:50;;;;;;;2.50;1.17;;;8.60;99.90;;;;;;5113859;28;20106;-74
2024/02/12 13:00:19;;;;;;;3.85;1.20;;;8.60;99.90;;;;;;5099865;28;20024;-73
2024/02/12 13:02:53;;;;;;;1.63;1.20;;;8.50;99.90;;;;;;5094991;28;20024;-73
2024/02/12 13:05:20;;;;;;;4.53;2.22;;;8.40;99.90;;;;;;5105441;28;20176;-72
2024/02/12 13:07:48;;;;;;;4.18;2.10;;;8.40;99.90;;;;;;5111908;28;20039;-73
2024/02/12 13:10:14;;;;;;;3.85;2.30;;;8.30;99.90;;;;;;5088539;28;20457;-73
2024/02/12 13:12:43;;;;;;;6.55;2.60;;;8.40;99.90;;;;;;5107310;28;20046;-73
2024/02/12 13:15:09;;;;;;;6.90;2.72;;;8.60;99.90;;;;;;5105938;27;20123;-73
2024/02/12 13:17:35;;;;;;;6.88;2.40;;;8.70;99.90;;;;;;5105854;28;20472;-73
2024/02/12 13:20:03;;;;;;;8.07;2.90;;;8.80;99.90;;;;;;5101275;28;20031;-72
2024/02/12 13:22:36;;;;;;;4.38;1.85;;;9.00;99.90;;;;;;5108621;28;20139;-72
2024/02/12 13:25:02;;;;;;;4.90;1.63;;;9.10;99.90;;;;;;5101853;27;20031;-73
2024/02/12 13:27:27;;;;;;;2.97;1.40;;;9.30;99.90;;;;;;5102775;27;20031;-73
2024/02/12 13:29:53;;;;;;;2.63;1.35;;;9.40;99.90;;;;;;5112589;28;20026;-73
2024/02/12 13:32:18;;;;;;;2.60;1.50;;;9.50;99.90;;;;;;5113022;27;20038;-72
2024/02/12 13:34:44;;;;;;;2.70;1.27;;;9.50;99.90;;;;;;5090315;28;20073;-72
2024/02/12 13:37:11;;;;;;;2.53;1.65;;;9.60;99.90;;;;;;5109531;28;20479;-72
2024/02/12 13:39:37;;;;;;;1.67;0.93;;;9.70;99.90;;;;;;5103711;28;20425;-72
2024/02/12 13:42:03;;;;;;;0.57;0.50;;;9.80;99.90;;;;;;5112134;28;20139;-75
2024/02/12 13:44:32;;;;;;;0.65;0.50;;;9.80;99.90;;;;;;5111704;28;20027;-73
2024/02/12 13:46:59;;;;;;;3.63;0.90;;;9.80;99.90;;;;;;5112601;28;20028;-73
2024/02/12 13:49:25;;;;;;;2.42;0.70;;;9.80;99.90;;;;;;5111187;28;20099;-73
2024/02/12 13:51:50;;;;;;;1.15;0.80;;;9.80;99.90;;;;;;5110138;28;20106;-72
2024/02/12 13:54:16;;;;;;;4.18;1.15;;;9.70;99.90;;;;;;5107805;28;20080;-73
2024/02/12 13:56:42;;;;;;;3.50;0.68;;;9.70;99.90;;;;;;5097842;28;20567;-72
2024/02/12 13:59:07;;;;;;;3.10;0.70;;;9.70;99.90;;;;;;5111886;28;20052;-72
2024/02/12 14:01:35;;;;;;;3.38;1.08;;;9.70;99.90;;;;;;5111717;28;20385;-72
2024/02/12 14:04:02;;;;;;;2.25;0.60;;;9.70;99.90;;;;;;5084049;28;20474;-72
2024/02/12 14:06:29;;;;;;;1.73;0.98;;;9.80;99.90;;;;;;5108308;28;20169;-73
2024/02/12 14:08:56;;;;;;;3.78;0.80;;;9.80;99.90;;;;;;5092453;28;20057;-74
2024/02/12 14:11:24;;;;;;;1.70;0.63;;;9.80;99.90;;;;;;5097630;28;20026;-74
2024/02/12 14:13:51;;;;;;;2.08;0.50;;;9.80;99.90;;;;;;5103631;28;20055;-72
2024/02/12 14:16:17;;;;;;;2.53;0.63;;;9.90;99.90;;;;;;5112238;28;20369;-72
2024/02/12 14:18:43;;;;;;;2.47;0.80;;;10.00;99.90;;;;;;5110646;28;20020;-72